sensor_id;sensor_type;location;lat;lon;timestamp;temperature;humidity
9157;DHT22;4613;48.392;9.998;2022-10-04T00:02:25;8.70;99.90
9157;DHT22;4613;48.392;9.998;2022-10-04T00:04:59;8.60;99.90
9157;DHT22;4613;48.392;9.998;2022-10-04T00:07:37;8.40;99.90
9157;DHT22;4613;48.392;9.998;2022-10-04T00:10:30;8.30;99.90
9157;DHT22;4613;48.392;9.998;2022-10-04T00:13:05;8.10;99.90
9157;DHT22;4613;48.392;9.998;2022-10-04T00:15:42;8.30;99.90
9157;DHT22;4613;48.392;9.998;2022-10-04T00:18:23;8.60;99.90
9157;DHT22;4613;48.392;9.998;2022-10-04T00:21:01;8.80;99.90
9157;DHT22;4613;48.392;9.998;2022-10-04T00:28:55;8.80;99.90
9157;DHT22;4613;48.392;9.998;2022-10-04T00:31:27;8.80;99.90
9157;DHT22;4613;48.392;9.998;2022-10-04T00:36:54;8.70;99.90
9157;DHT22;4613;48.392;9.998;2022-10-04T00:42:12;8.70;99.90
9157;DHT22;4613;48.392;9.998;2022-10-04T00:45:10;8.70;99.90
9157;DHT22;4613;48.392;9.998;2022-10-04T00:50:35;8.60;99.90
9157;DHT22;4613;48.392;9.998;2022-10-04T00:55:55;8.10;99.90
9157;DHT22;4613;48.392;9.998;2022-10-04T00:58:33;8.40;99.90
9157;DHT22;4613;48.392;9.998;2022-10-04T01:01:05;8.10;99.90
9157;DHT22;4613;48.392;9.998;2022-10-04T01:03:39;8.20;99.90
9157;DHT22;4613;48.392;9.998;2022-10-04T01:06:14;8.20;99.90
9157;DHT22;4613;48.392;9.998;2022-10-04T01:08:49;8.40;99.90
9157;DHT22;4613;48.392;9.998;2022-10-04T01:11:25;8.50;99.90
9157;DHT22;4613;48.392;9.998;2022-10-04T01:14:04;8.60;99.90
9157;DHT22;4613;48.392;9.998;2022-10-04T01:16:38;8.10;99.90
9157;DHT22;4613;48.392;9.998;2022-10-04T01:22:28;8.10;99.90
9157;DHT22;4613;48.392;9.998;2022-10-04T01:24:59;7.90;99.90
9157;DHT22;4613;48.392;9.998;2022-10-04T01:27:40;7.90;99.90
9157;DHT22;4613;48.392;9.998;2022-10-04T01:30:15;7.90;99.90
9157;DHT22;4613;48.392;9.998;2022-10-04T01:32:50;8.00;99.90
9157;DHT22;4613;48.392;9.998;2022-10-04T01:35:20;8.10;99.90
9157;DHT22;4613;48.392;9.998;2022-10-04T01:37:51;8.00;99.90
9157;DHT22;4613;48.392;9.998;2022-10-04T01:40:22;7.80;99.90
9157;DHT22;4613;48.392;9.998;2022-10-04T01:42:59;7.70;99.90
9157;DHT22;4613;48.392;9.998;2022-10-04T01:45:42;7.60;99.90
9157;DHT22;4613;48.392;9.998;2022-10-04T01:48:20;7.50;99.90
9157;DHT22;4613;48.392;9.998;2022-10-04T01:54:00;7.50;99.90
9157;DHT22;4613;48.392;9.998;2022-10-04T01:56:56;7.30;99.90
9157;DHT22;4613;48.392;9.998;2022-10-04T01:59:37;7.20;99.90
9157;DHT22;4613;48.392;9.998;2022-10-04T02:05:04;7.30;99.90
9157;DHT22;4613;48.392;9.998;2022-10-04T02:07:37;7.40;99.90
9157;DHT22;4613;48.392;9.998;2022-10-04T02:10:14;7.60;99.90
9157;DHT22;4613;48.392;9.998;2022-10-04T02:12:48;7.60;99.90
9157;DHT22;4613;48.392;9.998;2022-10-04T02:15:21;7.50;99.90
9157;DHT22;4613;48.392;9.998;2022-10-04T02:17:57;7.50;99.90
9157;DHT22;4613;48.392;9.998;2022-10-04T02:20:28;7.50;99.90
9157;DHT22;4613;48.392;9.998;2022-10-04T02:22:59;7.20;99.90
9157;DHT22;4613;48.392;9.998;2022-10-04T02:25:35;7.10;99.90
9157;DHT22;4613;48.392;9.998;2022-10-04T02:28:11;7.40;99.90
9157;DHT22;4613;48.392;9.998;2022-10-04T02:30:51;7.40;99.90
9157;DHT22;4613;48.392;9.998;2022-10-04T02:33:42;7.60;99.90
9157;DHT22;4613;48.392;9.998;2022-10-04T02:36:15;7.20;99.90
9157;DHT22;4613;48.392;9.998;2022-10-04T02:39:12;7.20;99.90
9157;DHT22;4613;48.392;9.998;2022-10-04T02:41:57;7.60;99.90
9157;DHT22;4613;48.392;9.998;2022-10-04T02:45:18;7.60;99.90
9157;DHT22;4613;48.392;9.998;2022-10-04T02:47:57;7.80;99.90
9157;DHT22;4613;48.392;9.998;2022-10-04T02:50:40;7.80;99.90
9157;DHT22;4613;48.392;9.998;2022-10-04T02:55:55;7.90;99.90
9157;DHT22;4613;48.392;9.998;2022-10-04T02:58:29;7.80;99.90
9157;DHT22;4613;48.392;9.998;2022-10-04T03:01:01;7.70;99.90
9157;DHT22;4613;48.392;9.998;2022-10-04T03:03:33;7.60;99.90
9157;DHT22;4613;48.392;9.998;2022-10-04T03:06:08;7.50;99.90
9157;DHT22;4613;48.392;9.998;2022-10-04T03:08:59;7.50;99.90
9157;DHT22;4613;48.392;9.998;2022-10-04T03:11:36;7.30;99.90
9157;DHT22;4613;48.392;9.998;2022-10-04T03:14:16;7.10;99.90
9157;DHT22;4613;48.392;9.998;2022-10-04T03:16:52;7.00;99.90
9157;DHT22;4613;48.392;9.998;2022-10-04T03:19:25;7.30;99.90
9157;DHT22;4613;48.392;9.998;2022-10-04T03:22:00;7.00;99.90
9157;DHT22;4613;48.392;9.998;2022-10-04T03:24:36;7.10;99.90
9157;DHT22;4613;48.392;9.998;2022-10-04T03:27:08;7.10;99.90
9157;DHT22;4613;48.392;9.998;2022-10-04T03:29:45;7.40;99.90
9157;DHT22;4613;48.392;9.998;2022-10-04T03:32:17;7.50;99.90
9157;DHT22;4613;48.392;9.998;2022-10-04T03:35:36;7.30;99.90
9157;DHT22;4613;48.392;9.998;2022-10-04T03:37:48;7.10;99.90
9157;DHT22;4613;48.392;9.998;2022-10-04T03:40:23;7.10;99.90
9157;DHT22;4613;48.392;9.998;2022-10-04T03:42:58;7.10;99.90
9157;DHT22;4613;48.392;9.998;2022-10-04T03:45:32;7.30;99.90
9157;DHT22;4613;48.392;9.998;2022-10-04T03:48:08;7.50;99.90
9157;DHT22;4613;48.392;9.998;2022-10-04T03:50:49;7.40;99.90
9157;DHT22;4613;48.392;9.998;2022-10-04T03:53:32;7.60;99.90
9157;DHT22;4613;48.392;9.998;2022-10-04T03:58:45;7.20;99.90
9157;DHT22;4613;48.392;9.998;2022-10-04T04:01:37;7.20;99.90
9157;DHT22;4613;48.392;9.998;2022-10-04T04:09:42;6.90;99.90
9157;DHT22;4613;48.392;9.998;2022-10-04T04:12:55;7.10;99.90
9157;DHT22;4613;48.392;9.998;2022-10-04T04:15:31;7.20;99.90
9157;DHT22;4613;48.392;9.998;2022-10-04T04:18:04;7.30;99.90
9157;DHT22;4613;48.392;9.998;2022-10-04T04:20:37;7.50;99.90
9157;DHT22;4613;48.392;9.998;2022-10-04T04:25:48;6.70;99.90
9157;DHT22;4613;48.392;9.998;2022-10-04T04:28:32;7.00;99.90
9157;DHT22;4613;48.392;9.998;2022-10-04T04:33:59;6.90;99.90
9157;DHT22;4613;48.392;9.998;2022-10-04T04:36:38;6.80;99.90
9157;DHT22;4613;48.392;9.998;2022-10-04T04:39:19;7.10;99.90
9157;DHT22;4613;48.392;9.998;2022-10-04T04:44:50;7.20;99.90
9157;DHT22;4613;48.392;9.998;2022-10-04T04:47:29;7.30;99.90
9157;DHT22;4613;48.392;9.998;2022-10-04T04:50:17;7.50;99.90
9157;DHT22;4613;48.392;9.998;2022-10-04T04:52:53;7.40;99.90
9157;DHT22;4613;48.392;9.998;2022-10-04T04:55:27;7.30;99.90
9157;DHT22;4613;48.392;9.998;2022-10-04T04:57:59;7.20;99.90
9157;DHT22;4613;48.392;9.998;2022-10-04T05:00:32;7.10;99.90
9157;DHT22;4613;48.392;9.998;2022-10-04T05:03:17;7.00;99.90
9157;DHT22;4613;48.392;9.998;2022-10-04T05:05:49;6.80;99.90
9157;DHT22;4613;48.392;9.998;2022-10-04T05:08:26;6.50;99.90
9157;DHT22;4613;48.392;9.998;2022-10-04T05:11:11;6.60;99.90
9157;DHT22;4613;48.392;9.998;2022-10-04T05:13:44;7.00;99.90
9157;DHT22;4613;48.392;9.998;2022-10-04T05:16:23;7.20;99.90
9157;DHT22;4613;48.392;9.998;2022-10-04T05:19:01;7.30;99.90
9157;DHT22;4613;48.392;9.998;2022-10-04T05:21:34;7.40;99.90
9157;DHT22;4613;48.392;9.998;2022-10-04T05:24:32;7.30;99.90
9157;DHT22;4613;48.392;9.998;2022-10-04T05:27:07;7.40;99.90
9157;DHT22;4613;48.392;9.998;2022-10-04T05:30:13;7.40;99.90
9157;DHT22;4613;48.392;9.998;2022-10-04T05:33:09;7.40;99.90
9157;DHT22;4613;48.392;9.998;2022-10-04T05:36:14;7.40;99.90
9157;DHT22;4613;48.392;9.998;2022-10-04T05:38:52;7.50;99.90
9157;DHT22;4613;48.392;9.998;2022-10-04T05:41:35;7.50;99.90
9157;DHT22;4613;48.392;9.998;2022-10-04T05:46:59;7.30;99.90
9157;DHT22;4613;48.392;9.998;2022-10-04T05:49:35;7.40;99.90
9157;DHT22;4613;48.392;9.998;2022-10-04T05:52:14;7.50;99.90
9157;DHT22;4613;48.392;9.998;2022-10-04T05:54:46;7.60;99.90
9157;DHT22;4613;48.392;9.998;2022-10-04T05:57:38;7.60;99.90
9157;DHT22;4613;48.392;9.998;2022-10-04T06:00:17;7.60;99.90
9157;DHT22;4613;48.392;9.998;2022-10-04T06:06:02;7.70;99.90
9157;DHT22;4613;48.392;9.998;2022-10-04T06:08:50;7.60;99.90
9157;DHT22;4613;48.392;9.998;2022-10-04T06:14:37;7.60;99.90
9157;DHT22;4613;48.392;9.998;2022-10-04T06:17:32;7.80;99.90
9157;DHT22;4613;48.392;9.998;2022-10-04T06:23:15;8.10;99.90
9157;DHT22;4613;48.392;9.998;2022-10-04T06:25:48;8.20;99.90
9157;DHT22;4613;48.392;9.998;2022-10-04T06:28:30;8.20;99.90
9157;DHT22;4613;48.392;9.998;2022-10-04T06:42:53;8.40;99.90
9157;DHT22;4613;48.392;9.998;2022-10-04T06:54:26;8.60;99.90
9157;DHT22;4613;48.392;9.998;2022-10-04T06:57:26;8.60;99.90
9157;DHT22;4613;48.392;9.998;2022-10-04T07:00:21;8.90;99.90
9157;DHT22;4613;48.392;9.998;2022-10-04T07:02:59;9.00;99.90
9157;DHT22;4613;48.392;9.998;2022-10-04T07:05:38;9.20;99.90
9157;DHT22;4613;48.392;9.998;2022-10-04T07:08:50;9.10;99.90
9157;DHT22;4613;48.392;9.998;2022-10-04T07:11:49;9.20;99.90
9157;DHT22;4613;48.392;9.998;2022-10-04T07:14:27;9.30;99.90
9157;DHT22;4613;48.392;9.998;2022-10-04T07:17:03;8.70;99.90
9157;DHT22;4613;48.392;9.998;2022-10-04T07:19:49;7.90;99.90
9157;DHT22;4613;48.392;9.998;2022-10-04T07:22:40;8.30;99.90
9157;DHT22;4613;48.392;9.998;2022-10-04T07:25:26;8.60;99.90
9157;DHT22;4613;48.392;9.998;2022-10-04T07:31:11;8.80;99.90
9157;DHT22;4613;48.392;9.998;2022-10-04T07:33:50;8.70;99.90
9157;DHT22;4613;48.392;9.998;2022-10-04T07:37:06;9.00;99.90
9157;DHT22;4613;48.392;9.998;2022-10-04T07:39:49;8.80;99.90
9157;DHT22;4613;48.392;9.998;2022-10-04T07:42:46;8.90;99.90
9157;DHT22;4613;48.392;9.998;2022-10-04T07:45:27;9.30;99.90
9157;DHT22;4613;48.392;9.998;2022-10-04T07:48:18;9.40;99.90
9157;DHT22;4613;48.392;9.998;2022-10-04T07:51:29;9.40;99.90
9157;DHT22;4613;48.392;9.998;2022-10-04T07:54:08;9.60;99.90
9157;DHT22;4613;48.392;9.998;2022-10-04T07:56:55;9.80;99.90
9157;DHT22;4613;48.392;9.998;2022-10-04T07:59:39;9.80;99.90
9157;DHT22;4613;48.392;9.998;2022-10-04T08:02:54;9.60;99.90
9157;DHT22;4613;48.392;9.998;2022-10-04T08:05:36;9.50;99.90
9157;DHT22;4613;48.392;9.998;2022-10-04T08:11:14;9.50;99.90
9157;DHT22;4613;48.392;9.998;2022-10-04T08:14:23;9.40;99.90
9157;DHT22;4613;48.392;9.998;2022-10-04T08:22:50;9.50;99.90
9157;DHT22;4613;48.392;9.998;2022-10-04T08:37:34;9.80;99.90
9157;DHT22;4613;48.392;9.998;2022-10-04T08:49:24;9.80;99.90
9157;DHT22;4613;48.392;9.998;2022-10-04T08:55:32;9.70;99.90
9157;DHT22;4613;48.392;9.998;2022-10-04T09:07:59;10.00;99.90
9157;DHT22;4613;48.392;9.998;2022-10-04T09:22:01;11.80;99.90
9157;DHT22;4613;48.392;9.998;2022-10-04T09:31:24;11.90;99.90
9157;DHT22;4613;48.392;9.998;2022-10-04T09:39:34;12.30;99.90
9157;DHT22;4613;48.392;9.998;2022-10-04T09:42:37;12.50;99.90
9157;DHT22;4613;48.392;9.998;2022-10-04T10:00:25;13.60;99.90
9157;DHT22;4613;48.392;9.998;2022-10-04T10:18:12;15.50;99.90
9157;DHT22;4613;48.392;9.998;2022-10-04T10:26:32;14.30;99.90
9157;DHT22;4613;48.392;9.998;2022-10-04T10:32:38;16.20;99.90
9157;DHT22;4613;48.392;9.998;2022-10-04T10:38:29;15.70;99.90
9157;DHT22;4613;48.392;9.998;2022-10-04T10:41:43;15.10;99.90
9157;DHT22;4613;48.392;9.998;2022-10-04T10:44:28;15.40;99.90
9157;DHT22;4613;48.392;9.998;2022-10-04T10:47:26;15.70;99.90
9157;DHT22;4613;48.392;9.998;2022-10-04T11:05:28;16.60;99.90
9157;DHT22;4613;48.392;9.998;2022-10-04T11:14:25;16.80;99.90
9157;DHT22;4613;48.392;9.998;2022-10-04T11:38:14;17.00;99.90
9157;DHT22;4613;48.392;9.998;2022-10-04T12:06:55;15.80;99.90
9157;DHT22;4613;48.392;9.998;2022-10-04T12:15:35;16.40;99.90
9157;DHT22;4613;48.392;9.998;2022-10-04T12:27:59;17.30;99.90
9157;DHT22;4613;48.392;9.998;2022-10-04T12:31:14;16.70;99.90
9157;DHT22;4613;48.392;9.998;2022-10-04T12:34:12;16.50;99.90
9157;DHT22;4613;48.392;9.998;2022-10-04T12:37:23;16.20;99.90
9157;DHT22;4613;48.392;9.998;2022-10-04T12:42:35;16.60;99.90
9157;DHT22;4613;48.392;9.998;2022-10-04T12:48:05;16.20;99.90
9157;DHT22;4613;48.392;9.998;2022-10-04T12:53:54;16.30;99.90
9157;DHT22;4613;48.392;9.998;2022-10-04T12:56:57;16.30;99.90
9157;DHT22;4613;48.392;9.998;2022-10-04T13:09:23;16.10;99.90
9157;DHT22;4613;48.392;9.998;2022-10-04T13:14:50;15.40;99.90
9157;DHT22;4613;48.392;9.998;2022-10-04T13:17:45;15.30;99.90
9157;DHT22;4613;48.392;9.998;2022-10-04T13:20:28;15.40;99.90
9157;DHT22;4613;48.392;9.998;2022-10-04T13:26:21;15.30;99.90
9157;DHT22;4613;48.392;9.998;2022-10-04T13:31:38;15.50;99.90
9157;DHT22;4613;48.392;9.998;2022-10-04T13:40:29;15.60;99.90
9157;DHT22;4613;48.392;9.998;2022-10-04T13:45:56;15.80;99.90
9157;DHT22;4613;48.392;9.998;2022-10-04T13:48:51;15.70;99.90
9157;DHT22;4613;48.392;9.998;2022-10-04T13:51:41;15.60;99.90
9157;DHT22;4613;48.392;9.998;2022-10-04T13:54:26;15.50;99.90
9157;DHT22;4613;48.392;9.998;2022-10-04T13:57:29;15.60;99.90
9157;DHT22;4613;48.392;9.998;2022-10-04T14:00:05;15.40;99.90
9157;DHT22;4613;48.392;9.998;2022-10-04T14:14:28;15.90;99.90
9157;DHT22;4613;48.392;9.998;2022-10-04T14:29:14;15.80;99.90
9157;DHT22;4613;48.392;9.998;2022-10-04T14:54:55;15.70;99.90
9157;DHT22;4613;48.392;9.998;2022-10-04T15:13:06;15.80;99.90
9157;DHT22;4613;48.392;9.998;2022-10-04T15:16:07;15.90;99.90
9157;DHT22;4613;48.392;9.998;2022-10-04T15:19:08;15.90;99.90
9157;DHT22;4613;48.392;9.998;2022-10-04T15:27:21;15.90;99.90
9157;DHT22;4613;48.392;9.998;2022-10-04T15:41:49;15.70;99.90
9157;DHT22;4613;48.392;9.998;2022-10-04T15:47:51;15.60;99.90
9157;DHT22;4613;48.392;9.998;2022-10-04T15:50:41;15.60;99.90
9157;DHT22;4613;48.392;9.998;2022-10-04T16:02:29;15.40;99.90
9157;DHT22;4613;48.392;9.998;2022-10-04T16:08:13;15.30;99.90
9157;DHT22;4613;48.392;9.998;2022-10-04T16:25:37;15.20;99.90
9157;DHT22;4613;48.392;9.998;2022-10-04T16:28:43;15.20;99.90
9157;DHT22;4613;48.392;9.998;2022-10-04T16:34:44;15.10;99.90
9157;DHT22;4613;48.392;9.998;2022-10-04T16:53:52;14.90;99.90
9157;DHT22;4613;48.392;9.998;2022-10-04T16:57:08;14.80;99.90
9157;DHT22;4613;48.392;9.998;2022-10-04T17:02:29;14.70;99.90
9157;DHT22;4613;48.392;9.998;2022-10-04T17:05:43;14.70;99.90
9157;DHT22;4613;48.392;9.998;2022-10-04T17:14:00;14.80;99.90
9157;DHT22;4613;48.392;9.998;2022-10-04T17:16:36;14.70;99.90
9157;DHT22;4613;48.392;9.998;2022-10-04T17:19:38;14.50;99.90
9157;DHT22;4613;48.392;9.998;2022-10-04T17:22:36;14.40;99.90
9157;DHT22;4613;48.392;9.998;2022-10-04T17:25:21;14.30;99.90
9157;DHT22;4613;48.392;9.998;2022-10-04T17:28:22;14.20;99.90
9157;DHT22;4613;48.392;9.998;2022-10-04T17:31:34;14.10;99.90
9157;DHT22;4613;48.392;9.998;2022-10-04T17:34:47;14.00;99.90
9157;DHT22;4613;48.392;9.998;2022-10-04T17:37:31;13.90;99.90
9157;DHT22;4613;48.392;9.998;2022-10-04T17:45:51;13.80;99.90
9157;DHT22;4613;48.392;9.998;2022-10-04T17:48:38;13.80;99.90
9157;DHT22;4613;48.392;9.998;2022-10-04T17:51:56;13.70;99.90
9157;DHT22;4613;48.392;9.998;2022-10-04T17:55:02;13.60;99.90
9157;DHT22;4613;48.392;9.998;2022-10-04T17:57:54;13.30;99.90
9157;DHT22;4613;48.392;9.998;2022-10-04T18:01:02;13.30;99.90
9157;DHT22;4613;48.392;9.998;2022-10-04T18:03:43;13.20;99.90
9157;DHT22;4613;48.392;9.998;2022-10-04T18:06:40;13.30;99.90
9157;DHT22;4613;48.392;9.998;2022-10-04T18:09:32;13.20;99.90
9157;DHT22;4613;48.392;9.998;2022-10-04T18:15:20;13.10;99.90
9157;DHT22;4613;48.392;9.998;2022-10-04T18:18:18;13.10;99.90
9157;DHT22;4613;48.392;9.998;2022-10-04T18:23:28;13.20;99.90
9157;DHT22;4613;48.392;9.998;2022-10-04T18:26:29;13.00;99.90
9157;DHT22;4613;48.392;9.998;2022-10-04T18:29:16;13.00;99.90
9157;DHT22;4613;48.392;9.998;2022-10-04T18:32:33;13.10;99.90
9157;DHT22;4613;48.392;9.998;2022-10-04T18:35:27;13.00;99.90
9157;DHT22;4613;48.392;9.998;2022-10-04T18:38:23;13.00;99.90
9157;DHT22;4613;48.392;9.998;2022-10-04T18:41:20;12.80;99.90
9157;DHT22;4613;48.392;9.998;2022-10-04T18:44:05;12.80;99.90
9157;DHT22;4613;48.392;9.998;2022-10-04T18:46:45;12.90;99.90
9157;DHT22;4613;48.392;9.998;2022-10-04T18:49:45;12.80;99.90
9157;DHT22;4613;48.392;9.998;2022-10-04T18:52:31;12.70;99.90
9157;DHT22;4613;48.392;9.998;2022-10-04T18:55:49;12.60;99.90
9157;DHT22;4613;48.392;9.998;2022-10-04T19:04:45;12.50;99.90
9157;DHT22;4613;48.392;9.998;2022-10-04T19:10:47;12.60;99.90
9157;DHT22;4613;48.392;9.998;2022-10-04T19:13:43;12.40;99.90
9157;DHT22;4613;48.392;9.998;2022-10-04T19:16:59;12.30;99.90
9157;DHT22;4613;48.392;9.998;2022-10-04T19:25:35;12.70;99.90
9157;DHT22;4613;48.392;9.998;2022-10-04T19:28:20;13.10;99.90
9157;DHT22;4613;48.392;9.998;2022-10-04T19:33:44;12.10;99.90
9157;DHT22;4613;48.392;9.998;2022-10-04T19:36:27;12.00;99.90
9157;DHT22;4613;48.392;9.998;2022-10-04T19:39:36;11.90;99.90
9157;DHT22;4613;48.392;9.998;2022-10-04T19:42:23;11.70;99.90
9157;DHT22;4613;48.392;9.998;2022-10-04T19:45:13;11.60;99.90
9157;DHT22;4613;48.392;9.998;2022-10-04T19:47:51;11.70;99.90
9157;DHT22;4613;48.392;9.998;2022-10-04T19:50:45;11.90;99.90
9157;DHT22;4613;48.392;9.998;2022-10-04T19:53:23;12.00;99.90
9157;DHT22;4613;48.392;9.998;2022-10-04T19:55:59;12.00;99.90
9157;DHT22;4613;48.392;9.998;2022-10-04T19:58:46;12.10;99.90
9157;DHT22;4613;48.392;9.998;2022-10-04T20:01:20;12.10;99.90
9157;DHT22;4613;48.392;9.998;2022-10-04T20:03:53;11.90;99.90
9157;DHT22;4613;48.392;9.998;2022-10-04T20:06:55;11.80;99.90
9157;DHT22;4613;48.392;9.998;2022-10-04T20:17:57;11.70;99.90
9157;DHT22;4613;48.392;9.998;2022-10-04T20:26:54;11.80;99.90
9157;DHT22;4613;48.392;9.998;2022-10-04T20:32:10;11.40;99.90
9157;DHT22;4613;48.392;9.998;2022-10-04T20:35:09;11.40;99.90
9157;DHT22;4613;48.392;9.998;2022-10-04T20:45:54;11.40;99.90
9157;DHT22;4613;48.392;9.998;2022-10-04T20:48:27;11.20;99.90
9157;DHT22;4613;48.392;9.998;2022-10-04T20:51:08;11.20;99.90
9157;DHT22;4613;48.392;9.998;2022-10-04T20:53:42;11.20;99.90
9157;DHT22;4613;48.392;9.998;2022-10-04T20:56:35;11.20;99.90
9157;DHT22;4613;48.392;9.998;2022-10-04T20:59:13;11.40;99.90
9157;DHT22;4613;48.392;9.998;2022-10-04T21:02:02;11.20;99.90
9157;DHT22;4613;48.392;9.998;2022-10-04T21:04:35;11.10;99.90
9157;DHT22;4613;48.392;9.998;2022-10-04T21:07:21;11.10;99.90
9157;DHT22;4613;48.392;9.998;2022-10-04T21:09:52;11.20;99.90
9157;DHT22;4613;48.392;9.998;2022-10-04T21:12:39;11.20;99.90
9157;DHT22;4613;48.392;9.998;2022-10-04T21:18:08;11.30;99.90
9157;DHT22;4613;48.392;9.998;2022-10-04T21:23:30;11.10;99.90
9157;DHT22;4613;48.392;9.998;2022-10-04T21:26:22;10.90;99.90
9157;DHT22;4613;48.392;9.998;2022-10-04T21:28:55;11.00;99.90
9157;DHT22;4613;48.392;9.998;2022-10-04T21:31:29;11.10;99.90
9157;DHT22;4613;48.392;9.998;2022-10-04T21:34:00;11.00;99.90
9157;DHT22;4613;48.392;9.998;2022-10-04T21:36:31;10.70;99.90
9157;DHT22;4613;48.392;9.998;2022-10-04T21:39:02;10.70;99.90
9157;DHT22;4613;48.392;9.998;2022-10-04T21:41:33;10.70;99.90
9157;DHT22;4613;48.392;9.998;2022-10-04T21:44:04;10.70;99.90
9157;DHT22;4613;48.392;9.998;2022-10-04T21:46:35;10.60;99.90
9157;DHT22;4613;48.392;9.998;2022-10-04T21:49:06;10.60;99.90
9157;DHT22;4613;48.392;9.998;2022-10-04T21:51:38;10.60;99.90
9157;DHT22;4613;48.392;9.998;2022-10-04T21:54:10;10.80;99.90
9157;DHT22;4613;48.392;9.998;2022-10-04T21:56:41;10.80;99.90
9157;DHT22;4613;48.392;9.998;2022-10-04T21:59:12;10.70;99.90
9157;DHT22;4613;48.392;9.998;2022-10-04T22:01:43;10.60;99.90
9157;DHT22;4613;48.392;9.998;2022-10-04T22:04:14;10.60;99.90
9157;DHT22;4613;48.392;9.998;2022-10-04T22:06:45;10.50;99.90
9157;DHT22;4613;48.392;9.998;2022-10-04T22:09:16;10.60;99.90
9157;DHT22;4613;48.392;9.998;2022-10-04T22:11:47;10.50;99.90
9157;DHT22;4613;48.392;9.998;2022-10-04T22:14:18;10.60;99.90
9157;DHT22;4613;48.392;9.998;2022-10-04T22:16:49;10.40;99.90
9157;DHT22;4613;48.392;9.998;2022-10-04T22:19:19;10.30;99.90
9157;DHT22;4613;48.392;9.998;2022-10-04T22:21:50;10.40;99.90
9157;DHT22;4613;48.392;9.998;2022-10-04T22:24:21;10.40;99.90
9157;DHT22;4613;48.392;9.998;2022-10-04T22:26:52;10.30;99.90
9157;DHT22;4613;48.392;9.998;2022-10-04T22:29:23;10.20;99.90
9157;DHT22;4613;48.392;9.998;2022-10-04T22:31:54;10.30;99.90
9157;DHT22;4613;48.392;9.998;2022-10-04T22:34:25;10.40;99.90
9157;DHT22;4613;48.392;9.998;2022-10-04T22:36:55;10.30;99.90
9157;DHT22;4613;48.392;9.998;2022-10-04T22:39:26;10.30;99.90
9157;DHT22;4613;48.392;9.998;2022-10-04T22:42:00;10.30;99.90
9157;DHT22;4613;48.392;9.998;2022-10-04T22:44:36;10.40;99.90
9157;DHT22;4613;48.392;9.998;2022-10-04T22:47:12;10.10;99.90
9157;DHT22;4613;48.392;9.998;2022-10-04T22:49:47;10.20;99.90
9157;DHT22;4613;48.392;9.998;2022-10-04T22:52:21;10.20;99.90
9157;DHT22;4613;48.392;9.998;2022-10-04T22:54:55;10.10;99.90
9157;DHT22;4613;48.392;9.998;2022-10-04T22:57:29;10.10;99.90
9157;DHT22;4613;48.392;9.998;2022-10-04T23:00:00;9.90;99.90
9157;DHT22;4613;48.392;9.998;2022-10-04T23:02:32;10.00;99.90
9157;DHT22;4613;48.392;9.998;2022-10-04T23:05:16;9.90;99.90
9157;DHT22;4613;48.392;9.998;2022-10-04T23:07:50;9.60;99.90
9157;DHT22;4613;48.392;9.998;2022-10-04T23:10:21;9.70;99.90
9157;DHT22;4613;48.392;9.998;2022-10-04T23:12:52;9.90;99.90
9157;DHT22;4613;48.392;9.998;2022-10-04T23:15:23;10.00;99.90
9157;DHT22;4613;48.392;9.998;2022-10-04T23:17:54;10.00;99.90
9157;DHT22;4613;48.392;9.998;2022-10-04T23:20:27;10.10;99.90
9157;DHT22;4613;48.392;9.998;2022-10-04T23:22:59;9.80;99.90
9157;DHT22;4613;48.392;9.998;2022-10-04T23:25:30;9.80;99.90
9157;DHT22;4613;48.392;9.998;2022-10-04T23:28:11;9.80;99.90
9157;DHT22;4613;48.392;9.998;2022-10-04T23:30:49;9.80;99.90
9157;DHT22;4613;48.392;9.998;2022-10-04T23:33:31;9.90;99.90
9157;DHT22;4613;48.392;9.998;2022-10-04T23:36:07;9.70;99.90
9157;DHT22;4613;48.392;9.998;2022-10-04T23:38:41;9.90;99.90
9157;DHT22;4613;48.392;9.998;2022-10-04T23:41:15;9.80;99.90
9157;DHT22;4613;48.392;9.998;2022-10-04T23:43:47;9.80;99.90
9157;DHT22;4613;48.392;9.998;2022-10-04T23:46:21;9.70;99.90
9157;DHT22;4613;48.392;9.998;2022-10-04T23:48:52;9.50;99.90
9157;DHT22;4613;48.392;9.998;2022-10-04T23:51:25;9.40;99.90
9157;DHT22;4613;48.392;9.998;2022-10-04T23:53:55;9.30;99.90
9157;DHT22;4613;48.392;9.998;2022-10-04T23:56:28;9.10;99.90
9157;DHT22;4613;48.392;9.998;2022-10-04T23:58:59;9.20;99.90
